sensor_id;sensor_type;location;lat;lon;timestamp;temperature;humidity
13835;DHT22;6988;52.614;13.500;2024-02-15T00:02:19;9.30;99.90
13835;DHT22;6988;52.614;13.500;2024-02-15T00:07:12;9.40;99.90
13835;DHT22;6988;52.614;13.500;2024-02-15T00:12:05;9.40;99.90
13835;DHT22;6988;52.614;13.500;2024-02-15T00:16:58;9.40;99.90
13835;DHT22;6988;52.614;13.500;2024-02-15T00:21:51;9.40;99.90
13835;DHT22;6988;52.614;13.500;2024-02-15T00:26:46;9.40;99.90
13835;DHT22;6988;52.614;13.500;2024-02-15T00:31:38;9.40;99.90
13835;DHT22;6988;52.614;13.500;2024-02-15T00:36:30;9.40;99.90
13835;DHT22;6988;52.614;13.500;2024-02-15T00:41:24;9.40;99.90
13835;DHT22;6988;52.614;13.500;2024-02-15T00:46:16;9.40;99.90
13835;DHT22;6988;52.614;13.500;2024-02-15T00:51:08;9.40;99.90
13835;DHT22;6988;52.614;13.500;2024-02-15T00:56:00;9.40;99.90
13835;DHT22;6988;52.614;13.500;2024-02-15T01:00:53;9.50;99.90
13835;DHT22;6988;52.614;13.500;2024-02-15T01:05:46;9.50;99.90
13835;DHT22;6988;52.614;13.500;2024-02-15T01:10:38;9.50;99.90
13835;DHT22;6988;52.614;13.500;2024-02-15T01:15:30;9.50;99.90
13835;DHT22;6988;52.614;13.500;2024-02-15T01:20:23;9.50;99.90
13835;DHT22;6988;52.614;13.500;2024-02-15T01:25:15;9.50;99.90
13835;DHT22;6988;52.614;13.500;2024-02-15T01:30:08;9.50;99.90
13835;DHT22;6988;52.614;13.500;2024-02-15T01:35:01;9.50;99.90
13835;DHT22;6988;52.614;13.500;2024-02-15T01:39:55;9.50;99.90
13835;DHT22;6988;52.614;13.500;2024-02-15T01:44:47;9.50;99.90
13835;DHT22;6988;52.614;13.500;2024-02-15T01:49:40;9.50;99.90
13835;DHT22;6988;52.614;13.500;2024-02-15T01:54:32;9.50;99.90
13835;DHT22;6988;52.614;13.500;2024-02-15T01:59:26;9.50;99.90
13835;DHT22;6988;52.614;13.500;2024-02-15T02:04:18;9.50;99.90
13835;DHT22;6988;52.614;13.500;2024-02-15T02:09:11;9.50;99.90
13835;DHT22;6988;52.614;13.500;2024-02-15T02:14:04;9.50;99.90
13835;DHT22;6988;52.614;13.500;2024-02-15T02:18:58;9.50;99.90
13835;DHT22;6988;52.614;13.500;2024-02-15T02:23:53;9.50;99.90
13835;DHT22;6988;52.614;13.500;2024-02-15T02:28:50;9.50;99.90
13835;DHT22;6988;52.614;13.500;2024-02-15T02:33:49;9.40;99.90
13835;DHT22;6988;52.614;13.500;2024-02-15T02:38:43;9.40;99.90
13835;DHT22;6988;52.614;13.500;2024-02-15T02:43:35;9.50;99.90
13835;DHT22;6988;52.614;13.500;2024-02-15T02:48:29;9.50;99.90
13835;DHT22;6988;52.614;13.500;2024-02-15T02:53:22;9.50;99.90
13835;DHT22;6988;52.614;13.500;2024-02-15T02:58:14;9.50;99.90
13835;DHT22;6988;52.614;13.500;2024-02-15T03:03:06;9.50;99.90
13835;DHT22;6988;52.614;13.500;2024-02-15T03:07:59;9.50;99.90
13835;DHT22;6988;52.614;13.500;2024-02-15T03:12:51;9.50;99.90
13835;DHT22;6988;52.614;13.500;2024-02-15T03:17:45;9.50;99.90
13835;DHT22;6988;52.614;13.500;2024-02-15T03:22:38;9.50;99.90
13835;DHT22;6988;52.614;13.500;2024-02-15T03:27:33;9.50;99.90
13835;DHT22;6988;52.614;13.500;2024-02-15T03:32:25;9.50;99.90
13835;DHT22;6988;52.614;13.500;2024-02-15T03:37:17;9.50;99.90
13835;DHT22;6988;52.614;13.500;2024-02-15T03:42:11;9.50;99.90
13835;DHT22;6988;52.614;13.500;2024-02-15T03:47:04;9.60;99.90
13835;DHT22;6988;52.614;13.500;2024-02-15T03:51:57;9.50;99.90
13835;DHT22;6988;52.614;13.500;2024-02-15T03:56:50;9.60;99.90
13835;DHT22;6988;52.614;13.500;2024-02-15T04:01:43;9.60;99.90
13835;DHT22;6988;52.614;13.500;2024-02-15T04:06:39;9.60;99.90
13835;DHT22;6988;52.614;13.500;2024-02-15T04:11:32;9.60;99.90
13835;DHT22;6988;52.614;13.500;2024-02-15T04:16:24;9.60;99.90
13835;DHT22;6988;52.614;13.500;2024-02-15T04:21:17;9.60;99.90
13835;DHT22;6988;52.614;13.500;2024-02-15T04:26:11;9.50;99.90
13835;DHT22;6988;52.614;13.500;2024-02-15T04:31:04;9.60;99.90
13835;DHT22;6988;52.614;13.500;2024-02-15T04:35:58;9.60;99.90
13835;DHT22;6988;52.614;13.500;2024-02-15T04:40:55;9.60;99.90
13835;DHT22;6988;52.614;13.500;2024-02-15T04:45:49;9.60;99.90
13835;DHT22;6988;52.614;13.500;2024-02-15T04:50:42;9.60;99.90
13835;DHT22;6988;52.614;13.500;2024-02-15T04:55:34;9.60;99.90
13835;DHT22;6988;52.614;13.500;2024-02-15T05:00:27;9.70;99.90
13835;DHT22;6988;52.614;13.500;2024-02-15T05:05:21;9.60;99.90
13835;DHT22;6988;52.614;13.500;2024-02-15T05:10:15;9.60;99.90
13835;DHT22;6988;52.614;13.500;2024-02-15T05:15:08;9.60;99.90
13835;DHT22;6988;52.614;13.500;2024-02-15T05:20:01;9.60;99.90
13835;DHT22;6988;52.614;13.500;2024-02-15T05:25:02;9.60;99.90
13835;DHT22;6988;52.614;13.500;2024-02-15T05:29:58;9.70;99.90
13835;DHT22;6988;52.614;13.500;2024-02-15T05:34:50;9.70;99.90
13835;DHT22;6988;52.614;13.500;2024-02-15T05:39:45;9.70;99.90
13835;DHT22;6988;52.614;13.500;2024-02-15T05:44:38;9.70;99.90
13835;DHT22;6988;52.614;13.500;2024-02-15T05:49:32;9.70;99.90
13835;DHT22;6988;52.614;13.500;2024-02-15T05:54:24;9.70;99.90
13835;DHT22;6988;52.614;13.500;2024-02-15T05:59:16;9.80;99.90
13835;DHT22;6988;52.614;13.500;2024-02-15T06:04:12;9.80;99.90
13835;DHT22;6988;52.614;13.500;2024-02-15T06:09:04;9.80;99.90
13835;DHT22;6988;52.614;13.500;2024-02-15T06:13:57;9.70;99.90
13835;DHT22;6988;52.614;13.500;2024-02-15T06:18:49;9.80;99.90
13835;DHT22;6988;52.614;13.500;2024-02-15T06:23:42;9.80;99.90
13835;DHT22;6988;52.614;13.500;2024-02-15T06:28:34;9.90;99.90
13835;DHT22;6988;52.614;13.500;2024-02-15T06:33:43;9.90;99.90
13835;DHT22;6988;52.614;13.500;2024-02-15T06:38:54;9.90;99.90
13835;DHT22;6988;52.614;13.500;2024-02-15T06:44:04;9.90;99.90
13835;DHT22;6988;52.614;13.500;2024-02-15T06:48:55;9.90;99.90
13835;DHT22;6988;52.614;13.500;2024-02-15T06:53:48;9.90;99.90
13835;DHT22;6988;52.614;13.500;2024-02-15T06:58:43;9.90;99.90
13835;DHT22;6988;52.614;13.500;2024-02-15T07:03:35;10.00;99.90
13835;DHT22;6988;52.614;13.500;2024-02-15T07:08:30;10.00;99.90
13835;DHT22;6988;52.614;13.500;2024-02-15T07:13:22;10.00;99.90
13835;DHT22;6988;52.614;13.500;2024-02-15T07:18:18;10.00;99.90
13835;DHT22;6988;52.614;13.500;2024-02-15T07:23:12;10.00;99.90
13835;DHT22;6988;52.614;13.500;2024-02-15T07:28:05;10.00;99.90
13835;DHT22;6988;52.614;13.500;2024-02-15T07:32:58;10.10;99.90
13835;DHT22;6988;52.614;13.500;2024-02-15T07:37:55;10.10;99.90
13835;DHT22;6988;52.614;13.500;2024-02-15T07:42:51;10.10;99.90
13835;DHT22;6988;52.614;13.500;2024-02-15T07:47:43;10.20;99.90
13835;DHT22;6988;52.614;13.500;2024-02-15T07:52:35;10.20;99.90
13835;DHT22;6988;52.614;13.500;2024-02-15T07:57:28;10.30;99.90
13835;DHT22;6988;52.614;13.500;2024-02-15T08:02:21;10.20;99.90
13835;DHT22;6988;52.614;13.500;2024-02-15T08:07:13;10.20;99.90
13835;DHT22;6988;52.614;13.500;2024-02-15T08:12:05;10.20;99.90
13835;DHT22;6988;52.614;13.500;2024-02-15T08:16:59;10.30;99.90
13835;DHT22;6988;52.614;13.500;2024-02-15T08:21:51;10.30;99.90
13835;DHT22;6988;52.614;13.500;2024-02-15T08:26:43;10.40;99.90
13835;DHT22;6988;52.614;13.500;2024-02-15T08:31:35;10.50;99.90
13835;DHT22;6988;52.614;13.500;2024-02-15T08:36:29;10.50;99.90
13835;DHT22;6988;52.614;13.500;2024-02-15T08:41:22;10.60;99.90
13835;DHT22;6988;52.614;13.500;2024-02-15T08:46:17;10.50;99.90
13835;DHT22;6988;52.614;13.500;2024-02-15T08:51:09;10.60;99.90
13835;DHT22;6988;52.614;13.500;2024-02-15T08:56:02;10.70;99.90
13835;DHT22;6988;52.614;13.500;2024-02-15T09:00:55;10.70;99.90
13835;DHT22;6988;52.614;13.500;2024-02-15T09:05:46;10.70;99.90
13835;DHT22;6988;52.614;13.500;2024-02-15T09:10:38;10.70;99.90
13835;DHT22;6988;52.614;13.500;2024-02-15T09:15:32;10.80;99.90
13835;DHT22;6988;52.614;13.500;2024-02-15T09:20:24;10.90;99.90
13835;DHT22;6988;52.614;13.500;2024-02-15T09:25:19;11.00;99.90
13835;DHT22;6988;52.614;13.500;2024-02-15T09:30:14;11.00;99.90
13835;DHT22;6988;52.614;13.500;2024-02-15T09:35:09;11.20;99.90
13835;DHT22;6988;52.614;13.500;2024-02-15T09:40:02;11.30;99.90
13835;DHT22;6988;52.614;13.500;2024-02-15T09:44:59;11.40;99.90
13835;DHT22;6988;52.614;13.500;2024-02-15T09:49:51;11.40;99.90
13835;DHT22;6988;52.614;13.500;2024-02-15T09:54:45;11.40;99.90
13835;DHT22;6988;52.614;13.500;2024-02-15T09:59:37;11.50;99.90
13835;DHT22;6988;52.614;13.500;2024-02-15T10:04:31;11.50;99.90
13835;DHT22;6988;52.614;13.500;2024-02-15T10:09:26;11.40;99.90
13835;DHT22;6988;52.614;13.500;2024-02-15T10:14:20;11.40;99.90
13835;DHT22;6988;52.614;13.500;2024-02-15T10:19:13;11.40;99.90
13835;DHT22;6988;52.614;13.500;2024-02-15T10:24:06;11.40;99.90
13835;DHT22;6988;52.614;13.500;2024-02-15T10:29:06;11.50;99.90
13835;DHT22;6988;52.614;13.500;2024-02-15T10:34:04;11.50;99.90
13835;DHT22;6988;52.614;13.500;2024-02-15T10:39:10;11.60;99.90
13835;DHT22;6988;52.614;13.500;2024-02-15T10:44:07;11.70;99.90
13835;DHT22;6988;52.614;13.500;2024-02-15T10:49:00;11.80;99.90
13835;DHT22;6988;52.614;13.500;2024-02-15T10:53:58;11.80;99.90
13835;DHT22;6988;52.614;13.500;2024-02-15T10:59:00;11.90;99.90
13835;DHT22;6988;52.614;13.500;2024-02-15T11:04:07;12.10;99.90
13835;DHT22;6988;52.614;13.500;2024-02-15T11:09:02;12.10;99.90
13835;DHT22;6988;52.614;13.500;2024-02-15T11:14:25;12.30;99.90
13835;DHT22;6988;52.614;13.500;2024-02-15T11:19:45;12.50;99.90
13835;DHT22;6988;52.614;13.500;2024-02-15T11:24:46;12.70;99.90
13835;DHT22;6988;52.614;13.500;2024-02-15T11:29:48;12.80;99.90
13835;DHT22;6988;52.614;13.500;2024-02-15T11:34:42;12.80;99.90
13835;DHT22;6988;52.614;13.500;2024-02-15T11:39:43;12.90;99.90
13835;DHT22;6988;52.614;13.500;2024-02-15T11:44:37;12.90;99.90
13835;DHT22;6988;52.614;13.500;2024-02-15T11:49:30;12.90;99.90
13835;DHT22;6988;52.614;13.500;2024-02-15T11:54:22;12.90;99.90
13835;DHT22;6988;52.614;13.500;2024-02-15T11:59:15;13.10;99.90
13835;DHT22;6988;52.614;13.500;2024-02-15T12:04:19;13.20;99.90
13835;DHT22;6988;52.614;13.500;2024-02-15T12:09:28;13.30;99.90
13835;DHT22;6988;52.614;13.500;2024-02-15T12:14:39;13.30;99.90
13835;DHT22;6988;52.614;13.500;2024-02-15T12:19:49;13.30;99.90
13835;DHT22;6988;52.614;13.500;2024-02-15T12:24:44;13.20;99.90
13835;DHT22;6988;52.614;13.500;2024-02-15T12:29:38;13.10;99.90
13835;DHT22;6988;52.614;13.500;2024-02-15T12:34:30;13.10;99.90
13835;DHT22;6988;52.614;13.500;2024-02-15T12:39:24;13.00;99.90
13835;DHT22;6988;52.614;13.500;2024-02-15T12:44:18;12.90;99.90
13835;DHT22;6988;52.614;13.500;2024-02-15T12:49:28;12.90;99.90
13835;DHT22;6988;52.614;13.500;2024-02-15T12:54:22;12.90;99.90
13835;DHT22;6988;52.614;13.500;2024-02-15T12:59:16;13.00;99.90
13835;DHT22;6988;52.614;13.500;2024-02-15T13:04:09;13.00;99.90
13835;DHT22;6988;52.614;13.500;2024-02-15T13:09:04;13.00;99.90
13835;DHT22;6988;52.614;13.500;2024-02-15T13:13:56;13.00;99.90
13835;DHT22;6988;52.614;13.500;2024-02-15T13:18:48;13.00;99.90
13835;DHT22;6988;52.614;13.500;2024-02-15T13:23:40;13.10;99.90
13835;DHT22;6988;52.614;13.500;2024-02-15T13:28:35;13.10;99.90
13835;DHT22;6988;52.614;13.500;2024-02-15T13:33:27;13.10;99.90
13835;DHT22;6988;52.614;13.500;2024-02-15T13:38:22;13.10;99.90
13835;DHT22;6988;52.614;13.500;2024-02-15T13:43:14;13.10;99.90
13835;DHT22;6988;52.614;13.500;2024-02-15T13:48:09;13.10;99.90
13835;DHT22;6988;52.614;13.500;2024-02-15T13:53:04;13.20;99.90
13835;DHT22;6988;52.614;13.500;2024-02-15T13:57:57;13.20;99.90
13835;DHT22;6988;52.614;13.500;2024-02-15T14:02:50;13.20;99.90
13835;DHT22;6988;52.614;13.500;2024-02-15T14:07:46;13.20;99.90
13835;DHT22;6988;52.614;13.500;2024-02-15T14:12:46;13.30;99.90
13835;DHT22;6988;52.614;13.500;2024-02-15T14:17:39;13.30;99.90
13835;DHT22;6988;52.614;13.500;2024-02-15T14:22:31;13.20;99.90
13835;DHT22;6988;52.614;13.500;2024-02-15T14:27:25;13.20;99.90
13835;DHT22;6988;52.614;13.500;2024-02-15T14:32:17;13.10;99.90
13835;DHT22;6988;52.614;13.500;2024-02-15T14:37:27;13.10;99.90
13835;DHT22;6988;52.614;13.500;2024-02-15T14:42:19;13.10;99.90
13835;DHT22;6988;52.614;13.500;2024-02-15T14:47:13;13.10;99.90
13835;DHT22;6988;52.614;13.500;2024-02-15T14:52:06;13.10;99.90
13835;DHT22;6988;52.614;13.500;2024-02-15T14:56:58;13.00;99.90
13835;DHT22;6988;52.614;13.500;2024-02-15T15:01:50;13.00;99.90
13835;DHT22;6988;52.614;13.500;2024-02-15T15:06:45;13.00;99.90
13835;DHT22;6988;52.614;13.500;2024-02-15T15:11:55;12.90;99.90
13835;DHT22;6988;52.614;13.500;2024-02-15T15:17:04;12.70;99.90
13835;DHT22;6988;52.614;13.500;2024-02-15T15:22:01;12.70;99.90
13835;DHT22;6988;52.614;13.500;2024-02-15T15:26:55;12.70;99.90
13835;DHT22;6988;52.614;13.500;2024-02-15T15:31:47;12.70;99.90
13835;DHT22;6988;52.614;13.500;2024-02-15T15:36:39;12.70;99.90
13835;DHT22;6988;52.614;13.500;2024-02-15T15:41:33;12.70;99.90
13835;DHT22;6988;52.614;13.500;2024-02-15T15:46:28;12.70;99.90
13835;DHT22;6988;52.614;13.500;2024-02-15T15:51:20;12.60;99.90
13835;DHT22;6988;52.614;13.500;2024-02-15T15:56:12;12.60;99.90
13835;DHT22;6988;52.614;13.500;2024-02-15T16:01:09;12.60;99.90
13835;DHT22;6988;52.614;13.500;2024-02-15T16:06:02;12.50;99.90
13835;DHT22;6988;52.614;13.500;2024-02-15T16:10:54;12.40;99.90
13835;DHT22;6988;52.614;13.500;2024-02-15T16:15:47;12.30;99.90
13835;DHT22;6988;52.614;13.500;2024-02-15T16:20:45;12.30;99.90
13835;DHT22;6988;52.614;13.500;2024-02-15T16:25:41;12.20;99.90
13835;DHT22;6988;52.614;13.500;2024-02-15T16:30:34;12.20;99.90
13835;DHT22;6988;52.614;13.500;2024-02-15T16:35:26;12.10;99.90
13835;DHT22;6988;52.614;13.500;2024-02-15T16:40:21;12.00;99.90
13835;DHT22;6988;52.614;13.500;2024-02-15T16:45:14;12.00;99.90
13835;DHT22;6988;52.614;13.500;2024-02-15T16:50:09;11.90;99.90
13835;DHT22;6988;52.614;13.500;2024-02-15T16:55:01;11.90;99.90
13835;DHT22;6988;52.614;13.500;2024-02-15T16:59:57;11.80;99.90
13835;DHT22;6988;52.614;13.500;2024-02-15T17:04:49;11.80;99.90
13835;DHT22;6988;52.614;13.500;2024-02-15T17:09:41;11.80;99.90
13835;DHT22;6988;52.614;13.500;2024-02-15T17:14:33;11.70;99.90
13835;DHT22;6988;52.614;13.500;2024-02-15T17:19:29;11.70;99.90
13835;DHT22;6988;52.614;13.500;2024-02-15T17:24:21;11.70;99.90
13835;DHT22;6988;52.614;13.500;2024-02-15T17:29:14;11.70;99.90
13835;DHT22;6988;52.614;13.500;2024-02-15T17:34:06;11.60;99.90
13835;DHT22;6988;52.614;13.500;2024-02-15T17:39:03;11.60;99.90
13835;DHT22;6988;52.614;13.500;2024-02-15T17:43:54;11.50;99.90
13835;DHT22;6988;52.614;13.500;2024-02-15T17:48:50;11.50;99.90
13835;DHT22;6988;52.614;13.500;2024-02-15T17:53:41;11.50;99.90
13835;DHT22;6988;52.614;13.500;2024-02-15T17:58:36;11.50;99.90
13835;DHT22;6988;52.614;13.500;2024-02-15T18:03:28;11.50;99.90
13835;DHT22;6988;52.614;13.500;2024-02-15T18:08:20;11.50;99.90
13835;DHT22;6988;52.614;13.500;2024-02-15T18:13:12;11.50;99.90
13835;DHT22;6988;52.614;13.500;2024-02-15T18:18:06;11.40;99.90
13835;DHT22;6988;52.614;13.500;2024-02-15T18:22:59;11.40;99.90
13835;DHT22;6988;52.614;13.500;2024-02-15T18:27:51;11.40;99.90
13835;DHT22;6988;52.614;13.500;2024-02-15T18:32:43;11.40;99.90
13835;DHT22;6988;52.614;13.500;2024-02-15T18:37:36;11.40;99.90
13835;DHT22;6988;52.614;13.500;2024-02-15T18:42:28;11.40;99.90
13835;DHT22;6988;52.614;13.500;2024-02-15T18:47:21;11.30;99.90
13835;DHT22;6988;52.614;13.500;2024-02-15T18:52:13;11.40;99.90
13835;DHT22;6988;52.614;13.500;2024-02-15T18:57:06;11.40;99.90
13835;DHT22;6988;52.614;13.500;2024-02-15T19:01:59;11.50;99.90
13835;DHT22;6988;52.614;13.500;2024-02-15T19:06:51;11.60;99.90
13835;DHT22;6988;52.614;13.500;2024-02-15T19:11:43;11.50;99.90
13835;DHT22;6988;52.614;13.500;2024-02-15T19:16:36;11.50;99.90
13835;DHT22;6988;52.614;13.500;2024-02-15T19:21:28;11.30;99.90
13835;DHT22;6988;52.614;13.500;2024-02-15T19:26:19;11.30;99.90
13835;DHT22;6988;52.614;13.500;2024-02-15T19:31:11;11.30;99.90
13835;DHT22;6988;52.614;13.500;2024-02-15T19:36:06;11.30;99.90
13835;DHT22;6988;52.614;13.500;2024-02-15T19:40:58;11.30;99.90
13835;DHT22;6988;52.614;13.500;2024-02-15T19:45:50;11.40;99.90
13835;DHT22;6988;52.614;13.500;2024-02-15T19:50:42;11.40;99.90
13835;DHT22;6988;52.614;13.500;2024-02-15T19:55:35;11.40;99.90
13835;DHT22;6988;52.614;13.500;2024-02-15T20:00:28;11.40;99.90
13835;DHT22;6988;52.614;13.500;2024-02-15T20:05:21;11.40;99.90
13835;DHT22;6988;52.614;13.500;2024-02-15T20:10:14;11.40;99.90
13835;DHT22;6988;52.614;13.500;2024-02-15T20:15:07;11.40;99.90
13835;DHT22;6988;52.614;13.500;2024-02-15T20:20:00;11.40;99.90
13835;DHT22;6988;52.614;13.500;2024-02-15T20:24:53;11.30;99.90
13835;DHT22;6988;52.614;13.500;2024-02-15T20:29:45;11.50;99.90
13835;DHT22;6988;52.614;13.500;2024-02-15T20:34:38;11.30;99.90
13835;DHT22;6988;52.614;13.500;2024-02-15T20:39:30;11.30;99.90
13835;DHT22;6988;52.614;13.500;2024-02-15T20:44:22;11.30;99.90
13835;DHT22;6988;52.614;13.500;2024-02-15T20:49:14;11.20;99.90
13835;DHT22;6988;52.614;13.500;2024-02-15T20:54:07;11.30;99.90
13835;DHT22;6988;52.614;13.500;2024-02-15T20:58:59;11.30;99.90
13835;DHT22;6988;52.614;13.500;2024-02-15T21:03:54;11.30;99.90
13835;DHT22;6988;52.614;13.500;2024-02-15T21:08:46;11.40;99.90
13835;DHT22;6988;52.614;13.500;2024-02-15T21:13:41;11.40;99.90
13835;DHT22;6988;52.614;13.500;2024-02-15T21:18:34;11.40;99.90
13835;DHT22;6988;52.614;13.500;2024-02-15T21:23:27;11.40;99.90
13835;DHT22;6988;52.614;13.500;2024-02-15T21:28:19;11.40;99.90
13835;DHT22;6988;52.614;13.500;2024-02-15T21:33:12;11.40;99.90
13835;DHT22;6988;52.614;13.500;2024-02-15T21:38:04;11.40;99.90
13835;DHT22;6988;52.614;13.500;2024-02-15T21:42:56;11.40;99.90
13835;DHT22;6988;52.614;13.500;2024-02-15T21:47:49;11.40;99.90
13835;DHT22;6988;52.614;13.500;2024-02-15T21:52:42;11.50;99.90
13835;DHT22;6988;52.614;13.500;2024-02-15T21:57:33;11.50;99.90
13835;DHT22;6988;52.614;13.500;2024-02-15T22:02:25;11.40;99.90
13835;DHT22;6988;52.614;13.500;2024-02-15T22:07:17;11.40;99.90
13835;DHT22;6988;52.614;13.500;2024-02-15T22:12:14;11.40;99.90
13835;DHT22;6988;52.614;13.500;2024-02-15T22:17:06;11.40;99.90
13835;DHT22;6988;52.614;13.500;2024-02-15T22:21:58;11.30;99.90
13835;DHT22;6988;52.614;13.500;2024-02-15T22:26:49;11.20;99.90
13835;DHT22;6988;52.614;13.500;2024-02-15T22:31:43;11.30;99.90
13835;DHT22;6988;52.614;13.500;2024-02-15T22:36:35;11.30;99.90
13835;DHT22;6988;52.614;13.500;2024-02-15T22:41:27;11.20;99.90
13835;DHT22;6988;52.614;13.500;2024-02-15T23:03:49;10.70;99.90
13835;DHT22;6988;52.614;13.500;2024-02-15T23:08:42;10.70;99.90
13835;DHT22;6988;52.614;13.500;2024-02-15T23:13:34;10.60;99.90
13835;DHT22;6988;52.614;13.500;2024-02-15T23:18:29;10.50;99.90
13835;DHT22;6988;52.614;13.500;2024-02-15T23:23:22;10.50;99.90
13835;DHT22;6988;52.614;13.500;2024-02-15T23:28:14;10.50;99.90
13835;DHT22;6988;52.614;13.500;2024-02-15T23:33:07;10.40;99.90
13835;DHT22;6988;52.614;13.500;2024-02-15T23:37:59;10.30;99.90
13835;DHT22;6988;52.614;13.500;2024-02-15T23:43:11;10.20;99.90
13835;DHT22;6988;52.614;13.500;2024-02-15T23:48:04;10.10;99.90
13835;DHT22;6988;52.614;13.500;2024-02-15T23:52:56;10.10;99.90
13835;DHT22;6988;52.614;13.500;2024-02-15T23:57:48;10.00;99.90
